sensor_id;sensor_type;location;lat;lon;timestamp;pressure;altitude;pressure_sealevel;temperature;humidity
9717;BME280;4897;43.570;27.832;2023-01-29T00:01:13;99226.25;;;-0.19;100.00
9717;BME280;4897;43.570;27.832;2023-01-29T00:03:40;99219.03;;;-0.14;100.00
9717;BME280;4897;43.570;27.832;2023-01-29T00:06:08;99223.41;;;-0.15;100.00
9717;BME280;4897;43.570;27.832;2023-01-29T00:08:38;99216.53;;;-0.17;100.00
9717;BME280;4897;43.570;27.832;2023-01-29T00:11:06;99218.91;;;-0.11;100.00
9717;BME280;4897;43.570;27.832;2023-01-29T00:13:34;99221.66;;;-0.14;100.00
9717;BME280;4897;43.570;27.832;2023-01-29T00:16:02;99213.72;;;-0.34;100.00
9717;BME280;4897;43.570;27.832;2023-01-29T00:18:29;99220.19;;;-0.21;100.00
9717;BME280;4897;43.570;27.832;2023-01-29T00:20:56;99211.63;;;-0.26;100.00
9717;BME280;4897;43.570;27.832;2023-01-29T00:23:24;99213.72;;;-0.34;100.00
9717;BME280;4897;43.570;27.832;2023-01-29T00:25:52;99203.47;;;-0.40;100.00
9717;BME280;4897;43.570;27.832;2023-01-29T00:28:19;99206.72;;;-0.34;100.00
9717;BME280;4897;43.570;27.832;2023-01-29T00:30:46;99225.56;;;-0.24;100.00
9717;BME280;4897;43.570;27.832;2023-01-29T00:33:13;99234.38;;;-0.25;100.00
9717;BME280;4897;43.570;27.832;2023-01-29T00:35:40;99220.47;;;-0.27;100.00
9717;BME280;4897;43.570;27.832;2023-01-29T00:38:07;99226.44;;;-0.24;100.00
9717;BME280;4897;43.570;27.832;2023-01-29T00:40:36;99242.31;;;-0.27;100.00
9717;BME280;4897;43.570;27.832;2023-01-29T00:43:18;99229.13;;;-0.25;100.00
9717;BME280;4897;43.570;27.832;2023-01-29T00:46:03;99220.47;;;-0.27;100.00
9717;BME280;4897;43.570;27.832;2023-01-29T00:48:31;99235.03;;;-0.20;100.00
9717;BME280;4897;43.570;27.832;2023-01-29T00:50:58;99238.44;;;-0.18;100.00
9717;BME280;4897;43.570;27.832;2023-01-29T00:53:25;99241.69;;;-0.33;100.00
9717;BME280;4897;43.570;27.832;2023-01-29T00:55:52;99230.72;;;-0.43;100.00
9717;BME280;4897;43.570;27.832;2023-01-29T00:58:20;99249.78;;;-0.38;100.00
9717;BME280;4897;43.570;27.832;2023-01-29T01:00:54;99261.63;;;-0.28;100.00
9717;BME280;4897;43.570;27.832;2023-01-29T01:03:21;99230.97;;;-0.27;100.00
9717;BME280;4897;43.570;27.832;2023-01-29T01:05:47;99239.50;;;-0.22;100.00
9717;BME280;4897;43.570;27.832;2023-01-29T01:08:14;99238.44;;;-0.18;100.00
9717;BME280;4897;43.570;27.832;2023-01-29T01:11:00;99244.13;;;-0.07;100.00
9717;BME280;4897;43.570;27.832;2023-01-29T01:13:29;99240.97;;;-0.15;100.00
9717;BME280;4897;43.570;27.832;2023-01-29T01:15:56;99236.22;;;-0.27;100.00
9717;BME280;4897;43.570;27.832;2023-01-29T01:18:23;99241.59;;;-0.30;100.00
9717;BME280;4897;43.570;27.832;2023-01-29T01:20:56;99223.72;;;-0.44;100.00
9717;BME280;4897;43.570;27.832;2023-01-29T01:23:23;99253.69;;;-0.26;100.00
9717;BME280;4897;43.570;27.832;2023-01-29T01:25:50;99252.25;;;-0.35;100.00
9717;BME280;4897;43.570;27.832;2023-01-29T01:28:16;99251.22;;;-0.31;100.00
9717;BME280;4897;43.570;27.832;2023-01-29T01:30:45;99258.31;;;-0.33;100.00
9717;BME280;4897;43.570;27.832;2023-01-29T01:33:11;99247.72;;;-0.31;100.00
9717;BME280;4897;43.570;27.832;2023-01-29T01:35:39;99227.38;;;-0.48;100.00
9717;BME280;4897;43.570;27.832;2023-01-29T01:38:06;99223.72;;;-0.44;100.00
9717;BME280;4897;43.570;27.832;2023-01-29T01:40:33;99232.91;;;-0.32;100.00
9717;BME280;4897;43.570;27.832;2023-01-29T01:43:00;99233.53;;;-0.26;100.00
9717;BME280;4897;43.570;27.832;2023-01-29T01:45:29;99231.06;;;-0.30;100.00
9717;BME280;4897;43.570;27.832;2023-01-29T01:48:01;99027.47;;;-1.45;100.00
9717;BME280;4897;43.570;27.832;2023-01-29T01:50:33;99234.75;;;-0.34;100.00
9717;BME280;4897;43.570;27.832;2023-01-29T01:53:05;99229.06;;;-0.24;100.00
9717;BME280;4897;43.570;27.832;2023-01-29T01:55:35;99240.00;;;-0.13;100.00
9717;BME280;4897;43.570;27.832;2023-01-29T01:58:07;99194.00;;;-0.44;100.00
9717;BME280;4897;43.570;27.832;2023-01-29T02:00:35;99237.47;;;-0.16;100.00
9717;BME280;4897;43.570;27.832;2023-01-29T02:03:03;99255.63;;;-0.31;100.00
9717;BME280;4897;43.570;27.832;2023-01-29T02:05:48;99254.16;;;-0.38;100.00
9717;BME280;4897;43.570;27.832;2023-01-29T02:08:41;99247.09;;;-0.36;100.00
9717;BME280;4897;43.570;27.832;2023-01-29T02:11:26;99258.19;;;-0.51;100.00
9717;BME280;4897;43.570;27.832;2023-01-29T02:13:53;99272.81;;;-0.67;100.00
9717;BME280;4897;43.570;27.832;2023-01-29T02:16:21;99269.47;;;-0.71;100.00
9717;BME280;4897;43.570;27.832;2023-01-29T02:18:49;99201.97;;;-1.14;100.00
9717;BME280;4897;43.570;27.832;2023-01-29T02:21:30;99269.50;;;-0.72;100.00
9717;BME280;4897;43.570;27.832;2023-01-29T02:24:25;99273.88;;;-0.73;100.00
9717;BME280;4897;43.570;27.832;2023-01-29T02:27:04;99206.66;;;-1.22;100.00
9717;BME280;4897;43.570;27.832;2023-01-29T02:29:41;99229.41;;;-0.99;100.00
9717;BME280;4897;43.570;27.832;2023-01-29T02:32:21;99269.72;;;-0.78;100.00
9717;BME280;4897;43.570;27.832;2023-01-29T02:35:02;99278.63;;;-0.59;100.00
9717;BME280;4897;43.570;27.832;2023-01-29T02:37:54;99229.09;;;-0.92;100.00
9717;BME280;4897;43.570;27.832;2023-01-29T02:40:28;99281.25;;;-0.59;100.00
9717;BME280;4897;43.570;27.832;2023-01-29T02:43:03;99265.75;;;-0.65;100.00
9717;BME280;4897;43.570;27.832;2023-01-29T02:45:42;99283.78;;;-0.56;100.00
9717;BME280;4897;43.570;27.832;2023-01-29T02:48:16;99282.84;;;-0.55;100.00
9717;BME280;4897;43.570;27.832;2023-01-29T02:50:47;99288.16;;;-0.57;100.00
9717;BME280;4897;43.570;27.832;2023-01-29T02:53:17;99274.47;;;-0.65;100.00
9717;BME280;4897;43.570;27.832;2023-01-29T02:55:50;99289.22;;;-0.62;100.00
9717;BME280;4897;43.570;27.832;2023-01-29T02:58:24;99290.91;;;-0.83;100.00
9717;BME280;4897;43.570;27.832;2023-01-29T03:00:59;99280.69;;;-0.91;100.00
9717;BME280;4897;43.570;27.832;2023-01-29T03:03:30;99272.75;;;-0.89;100.00
9717;BME280;4897;43.570;27.832;2023-01-29T03:06:02;99294.84;;;-0.71;100.00
9717;BME280;4897;43.570;27.832;2023-01-29T03:08:36;99226.53;;;-1.16;100.00
9717;BME280;4897;43.570;27.832;2023-01-29T03:11:09;99294.50;;;-0.86;100.00
9717;BME280;4897;43.570;27.832;2023-01-29T03:13:43;99311.66;;;-0.77;100.00
9717;BME280;4897;43.570;27.832;2023-01-29T03:16:20;99310.13;;;-0.83;100.00
9717;BME280;4897;43.570;27.832;2023-01-29T03:18:52;99318.94;;;-0.84;100.00
9717;BME280;4897;43.570;27.832;2023-01-29T03:21:24;99321.59;;;-0.85;100.00
9717;BME280;4897;43.570;27.832;2023-01-29T03:24:14;99262.16;;;-1.09;100.00
9717;BME280;4897;43.570;27.832;2023-01-29T03:27:02;99319.09;;;-0.88;100.00
9717;BME280;4897;43.570;27.832;2023-01-29T03:29:49;99302.38;;;-0.86;100.00
9717;BME280;4897;43.570;27.832;2023-01-29T03:32:38;99308.31;;;-0.81;100.00
9717;BME280;4897;43.570;27.832;2023-01-29T03:35:08;99319.16;;;-0.66;100.00
9717;BME280;4897;43.570;27.832;2023-01-29T03:37:39;99324.22;;;-0.62;100.00
9717;BME280;4897;43.570;27.832;2023-01-29T03:40:09;99315.84;;;-0.71;100.00
9717;BME280;4897;43.570;27.832;2023-01-29T03:42:45;99266.38;;;-1.05;100.00
9717;BME280;4897;43.570;27.832;2023-01-29T03:45:20;99325.41;;;-0.69;100.00
9717;BME280;4897;43.570;27.832;2023-01-29T03:47:56;99320.78;;;-0.87;100.00
9717;BME280;4897;43.570;27.832;2023-01-29T03:50:34;99324.22;;;-0.85;100.00
9717;BME280;4897;43.570;27.832;2023-01-29T03:53:08;99327.88;;;-0.89;100.00
9717;BME280;4897;43.570;27.832;2023-01-29T03:55:40;99334.63;;;-0.82;100.00
9717;BME280;4897;43.570;27.832;2023-01-29T03:58:18;99332.63;;;-0.75;100.00
9717;BME280;4897;43.570;27.832;2023-01-29T04:00:51;99339.72;;;-0.77;100.00
9717;BME280;4897;43.570;27.832;2023-01-29T04:03:25;99333.06;;;-0.88;100.00
9717;BME280;4897;43.570;27.832;2023-01-29T04:05:58;99302.13;;;-1.03;100.00
9717;BME280;4897;43.570;27.832;2023-01-29T04:08:33;99335.28;;;-0.77;100.00
9717;BME280;4897;43.570;27.832;2023-01-29T04:11:07;99334.16;;;-0.70;100.00
9717;BME280;4897;43.570;27.832;2023-01-29T04:13:36;99340.44;;;-0.74;100.00
9717;BME280;4897;43.570;27.832;2023-01-29T04:16:06;99342.03;;;-0.70;100.00
9717;BME280;4897;43.570;27.832;2023-01-29T04:18:37;99334.41;;;-0.76;100.00
9717;BME280;4897;43.570;27.832;2023-01-29T04:21:04;99322.78;;;-0.94;100.00
9717;BME280;4897;43.570;27.832;2023-01-29T04:23:32;99347.47;;;-0.74;100.00
9717;BME280;4897;43.570;27.832;2023-01-29T04:26:10;99324.19;;;-0.84;100.00
9717;BME280;4897;43.570;27.832;2023-01-29T04:28:50;99336.88;;;-0.73;100.00
9717;BME280;4897;43.570;27.832;2023-01-29T04:31:22;99350.56;;;-0.63;100.00
9717;BME280;4897;43.570;27.832;2023-01-29T04:33:59;99340.59;;;-0.78;100.00
9717;BME280;4897;43.570;27.832;2023-01-29T04:36:35;99334.69;;;-0.84;100.00
9717;BME280;4897;43.570;27.832;2023-01-29T04:39:09;99341.41;;;-0.76;100.00
9717;BME280;4897;43.570;27.832;2023-01-29T04:41:46;99346.56;;;-0.73;100.00
9717;BME280;4897;43.570;27.832;2023-01-29T04:44:20;99348.78;;;-0.63;100.00
9717;BME280;4897;43.570;27.832;2023-01-29T04:46:53;99358.50;;;-0.65;100.00
9717;BME280;4897;43.570;27.832;2023-01-29T04:49:31;99352.22;;;-0.61;100.00
9717;BME280;4897;43.570;27.832;2023-01-29T04:52:06;99345.63;;;-0.72;100.00
9717;BME280;4897;43.570;27.832;2023-01-29T04:54:44;99355.09;;;-0.68;100.00
9717;BME280;4897;43.570;27.832;2023-01-29T04:57:19;99356.59;;;-0.61;100.00
9717;BME280;4897;43.570;27.832;2023-01-29T04:59:52;99360.19;;;-0.64;100.00
9717;BME280;4897;43.570;27.832;2023-01-29T05:02:23;99356.38;;;-0.55;100.00
9717;BME280;4897;43.570;27.832;2023-01-29T05:04:53;99363.94;;;-0.46;100.00
9717;BME280;4897;43.570;27.832;2023-01-29T05:07:23;99368.00;;;-0.39;100.00
9717;BME280;4897;43.570;27.832;2023-01-29T05:09:52;99370.94;;;-0.47;100.00
9717;BME280;4897;43.570;27.832;2023-01-29T05:12:19;99378.66;;;-0.42;100.00
9717;BME280;4897;43.570;27.832;2023-01-29T05:14:49;99354.94;;;-0.41;100.00
9717;BME280;4897;43.570;27.832;2023-01-29T05:17:19;99371.34;;;-0.34;100.00
9717;BME280;4897;43.570;27.832;2023-01-29T05:19:46;99379.16;;;-0.33;100.00
9717;BME280;4897;43.570;27.832;2023-01-29T05:22:15;99355.19;;;-0.47;100.00
9717;BME280;4897;43.570;27.832;2023-01-29T05:24:47;99380.03;;;-0.32;100.00
9717;BME280;4897;43.570;27.832;2023-01-29T05:27:17;99365.38;;;-0.39;100.00
9717;BME280;4897;43.570;27.832;2023-01-29T05:30:02;99324.41;;;-0.66;100.00
9717;BME280;4897;43.570;27.832;2023-01-29T05:32:29;99380.09;;;-0.34;100.00
9717;BME280;4897;43.570;27.832;2023-01-29T05:34:56;99386.88;;;-0.28;100.00
9717;BME280;4897;43.570;27.832;2023-01-29T05:37:24;99372.94;;;-0.30;100.00
9717;BME280;4897;43.570;27.832;2023-01-29T05:39:51;99383.44;;;-0.30;100.00
9717;BME280;4897;43.570;27.832;2023-01-29T05:42:24;99393.97;;;-0.30;100.00
9717;BME280;4897;43.570;27.832;2023-01-29T05:44:50;99389.00;;;-0.38;100.00
9717;BME280;4897;43.570;27.832;2023-01-29T05:47:18;99394.91;;;-0.33;100.00
9717;BME280;4897;43.570;27.832;2023-01-29T05:49:45;99391.03;;;-0.23;100.00
9717;BME280;4897;43.570;27.832;2023-01-29T05:52:12;99388.78;;;-0.10;100.00
9717;BME280;4897;43.570;27.832;2023-01-29T05:54:40;99395.53;;;-0.26;100.00
9717;BME280;4897;43.570;27.832;2023-01-29T05:57:07;99391.09;;;-0.24;100.00
9717;BME280;4897;43.570;27.832;2023-01-29T05:59:34;99380.03;;;-0.32;100.00
9717;BME280;4897;43.570;27.832;2023-01-29T06:02:00;99410.97;;;-0.17;100.00
9717;BME280;4897;43.570;27.832;2023-01-29T06:04:27;99403.09;;;-0.17;100.00
9717;BME280;4897;43.570;27.832;2023-01-29T06:06:54;99402.94;;;-0.13;100.00
9717;BME280;4897;43.570;27.832;2023-01-29T06:09:21;99411.38;;;-0.05;100.00
9717;BME280;4897;43.570;27.832;2023-01-29T06:11:49;99415.06;;;-0.10;100.00
9717;BME280;4897;43.570;27.832;2023-01-29T06:14:16;99389.41;;;-0.25;100.00
9717;BME280;4897;43.570;27.832;2023-01-29T06:16:43;99405.34;;;-0.08;100.00
9717;BME280;4897;43.570;27.832;2023-01-29T06:19:09;99398.22;;;-0.05;100.00
9717;BME280;4897;43.570;27.832;2023-01-29T06:21:36;99415.97;;;0.12;100.00
9717;BME280;4897;43.570;27.832;2023-01-29T06:24:04;99419.56;;;0.10;100.00
9717;BME280;4897;43.570;27.832;2023-01-29T06:26:33;99420.69;;;0.26;100.00
9717;BME280;4897;43.570;27.832;2023-01-29T06:29:01;99420.06;;;0.19;100.00
9717;BME280;4897;43.570;27.832;2023-01-29T06:31:28;99411.63;;;0.11;100.00
9717;BME280;4897;43.570;27.832;2023-01-29T06:33:55;99429.75;;;0.19;100.00
9717;BME280;4897;43.570;27.832;2023-01-29T06:36:22;99430.34;;;0.25;100.00
9717;BME280;4897;43.570;27.832;2023-01-29T06:38:49;99407.06;;;0.16;100.00
9717;BME280;4897;43.570;27.832;2023-01-29T06:41:19;99438.75;;;0.35;100.00
9717;BME280;4897;43.570;27.832;2023-01-29T06:43:50;99435.25;;;0.34;100.00
9717;BME280;4897;43.570;27.832;2023-01-29T06:46:18;99362.25;;;-0.26;100.00
9717;BME280;4897;43.570;27.832;2023-01-29T06:48:45;99429.94;;;0.36;100.00
9717;BME280;4897;43.570;27.832;2023-01-29T06:51:12;99432.28;;;0.43;100.00
9717;BME280;4897;43.570;27.832;2023-01-29T06:53:40;99441.63;;;0.50;100.00
9717;BME280;4897;43.570;27.832;2023-01-29T06:56:07;99440.56;;;0.54;100.00
9717;BME280;4897;43.570;27.832;2023-01-29T06:58:35;99429.63;;;0.43;100.00
9717;BME280;4897;43.570;27.832;2023-01-29T07:01:03;99429.16;;;0.55;100.00
9717;BME280;4897;43.570;27.832;2023-01-29T07:03:32;99428.34;;;0.32;100.00
9717;BME280;4897;43.570;27.832;2023-01-29T07:05:59;99436.19;;;0.33;100.00
9717;BME280;4897;43.570;27.832;2023-01-29T07:08:26;99453.50;;;0.39;100.00
9717;BME280;4897;43.570;27.832;2023-01-29T07:10:57;99448.59;;;0.51;100.00
9717;BME280;4897;43.570;27.832;2023-01-29T07:13:25;99441.19;;;0.39;100.00
9717;BME280;4897;43.570;27.832;2023-01-29T07:15:52;99437.81;;;0.36;100.00
9717;BME280;4897;43.570;27.832;2023-01-29T07:18:19;99454.22;;;0.42;100.00
9717;BME280;4897;43.570;27.832;2023-01-29T07:20:47;99447.44;;;0.37;100.00
9717;BME280;4897;43.570;27.832;2023-01-29T07:23:14;99457.88;;;0.38;100.00
9717;BME280;4897;43.570;27.832;2023-01-29T07:25:42;99456.44;;;0.31;100.00
9717;BME280;4897;43.570;27.832;2023-01-29T07:28:09;99465.66;;;0.41;100.00
9717;BME280;4897;43.570;27.832;2023-01-29T07:30:36;99457.78;;;0.41;100.00
9717;BME280;4897;43.570;27.832;2023-01-29T07:33:04;99451.03;;;0.34;100.00
9717;BME280;4897;43.570;27.832;2023-01-29T07:35:35;99461.56;;;0.56;100.00
9717;BME280;4897;43.570;27.832;2023-01-29T07:38:04;99466.22;;;0.49;100.00
9717;BME280;4897;43.570;27.832;2023-01-29T07:40:31;99427.28;;;0.36;100.00
9717;BME280;4897;43.570;27.832;2023-01-29T07:42:58;99467.66;;;0.56;100.00
9717;BME280;4897;43.570;27.832;2023-01-29T07:45:25;99444.50;;;0.44;100.00
9717;BME280;4897;43.570;27.832;2023-01-29T07:47:53;99471.44;;;0.72;100.00
9717;BME280;4897;43.570;27.832;2023-01-29T07:50:20;99455.94;;;0.43;100.00
9717;BME280;4897;43.570;27.832;2023-01-29T07:52:47;99467.53;;;0.38;100.00
9717;BME280;4897;43.570;27.832;2023-01-29T07:55:16;99483.66;;;0.52;100.00
9717;BME280;4897;43.570;27.832;2023-01-29T07:57:43;99474.91;;;0.51;100.00
9717;BME280;4897;43.570;27.832;2023-01-29T08:00:11;99469.75;;;0.48;100.00
9717;BME280;4897;43.570;27.832;2023-01-29T08:02:39;99483.34;;;0.59;100.00
9717;BME280;4897;43.570;27.832;2023-01-29T08:05:07;99481.50;;;0.61;100.00
9717;BME280;4897;43.570;27.832;2023-01-29T08:07:34;99485.19;;;0.57;100.00
9717;BME280;4897;43.570;27.832;2023-01-29T08:10:01;99486.66;;;0.64;100.00
9717;BME280;4897;43.570;27.832;2023-01-29T08:12:29;99450.94;;;0.37;100.00
9717;BME280;4897;43.570;27.832;2023-01-29T08:14:56;99493.28;;;0.74;100.00
9717;BME280;4897;43.570;27.832;2023-01-29T08:17:23;99479.59;;;0.65;100.00
9717;BME280;4897;43.570;27.832;2023-01-29T08:19:50;99479.63;;;0.87;100.00
9717;BME280;4897;43.570;27.832;2023-01-29T08:22:19;99479.63;;;0.87;100.00
9717;BME280;4897;43.570;27.832;2023-01-29T08:24:46;99482.94;;;0.70;100.00
9717;BME280;4897;43.570;27.832;2023-01-29T08:27:13;99482.59;;;0.77;100.00
9717;BME280;4897;43.570;27.832;2023-01-29T08:29:41;99494.38;;;0.91;100.00
9717;BME280;4897;43.570;27.832;2023-01-29T08:32:08;99486.78;;;0.83;100.00
9717;BME280;4897;43.570;27.832;2023-01-29T08:34:38;99449.75;;;0.66;100.00
9717;BME280;4897;43.570;27.832;2023-01-29T08:37:05;99492.34;;;0.97;100.00
9717;BME280;4897;43.570;27.832;2023-01-29T08:39:32;99471.91;;;0.82;100.00
9717;BME280;4897;43.570;27.832;2023-01-29T08:41:59;99492.78;;;0.87;100.00
9717;BME280;4897;43.570;27.832;2023-01-29T08:44:25;99470.13;;;0.82;100.00
9717;BME280;4897;43.570;27.832;2023-01-29T08:46:54;99483.22;;;0.84;100.00
9717;BME280;4897;43.570;27.832;2023-01-29T08:49:20;99486.00;;;0.81;100.00
9717;BME280;4897;43.570;27.832;2023-01-29T08:51:47;99489.25;;;0.88;100.00
9717;BME280;4897;43.570;27.832;2023-01-29T08:54:16;99489.81;;;0.94;100.00
9717;BME280;4897;43.570;27.832;2023-01-29T08:56:42;99478.81;;;1.06;100.00
9717;BME280;4897;43.570;27.832;2023-01-29T08:59:10;99485.06;;;1.24;100.00
9717;BME280;4897;43.570;27.832;2023-01-29T09:01:37;99468.03;;;0.91;100.00
9717;BME280;4897;43.570;27.832;2023-01-29T09:04:06;99499.53;;;0.94;100.00
9717;BME280;4897;43.570;27.832;2023-01-29T09:06:33;99487.75;;;0.80;100.00
9717;BME280;4897;43.570;27.832;2023-01-29T09:09:00;99490.44;;;1.01;100.00
9717;BME280;4897;43.570;27.832;2023-01-29T09:11:27;99496.56;;;1.01;100.00
9717;BME280;4897;43.570;27.832;2023-01-29T09:13:53;99484.63;;;0.93;100.00
9717;BME280;4897;43.570;27.832;2023-01-29T09:16:20;99502.94;;;0.96;100.00
9717;BME280;4897;43.570;27.832;2023-01-29T09:18:47;99438.19;;;0.70;100.00
9717;BME280;4897;43.570;27.832;2023-01-29T09:21:15;99489.72;;;0.97;100.00
9717;BME280;4897;43.570;27.832;2023-01-29T09:23:42;99483.13;;;0.87;100.00
9717;BME280;4897;43.570;27.832;2023-01-29T09:26:09;99459.53;;;0.84;100.00
9717;BME280;4897;43.570;27.832;2023-01-29T09:28:36;99493.84;;;1.03;100.00
9717;BME280;4897;43.570;27.832;2023-01-29T09:31:03;99471.59;;;0.90;100.00
9717;BME280;4897;43.570;27.832;2023-01-29T09:33:30;99469.28;;;0.82;100.00
9717;BME280;4897;43.570;27.832;2023-01-29T09:35:57;99511.75;;;0.95;100.00
9717;BME280;4897;43.570;27.832;2023-01-29T09:38:26;99484.34;;;0.78;100.00
9717;BME280;4897;43.570;27.832;2023-01-29T09:40:57;99490.31;;;1.04;100.00
9717;BME280;4897;43.570;27.832;2023-01-29T09:43:36;99464.00;;;1.04;100.00
9717;BME280;4897;43.570;27.832;2023-01-29T09:46:12;99459.78;;;1.00;100.00
9717;BME280;4897;43.570;27.832;2023-01-29T09:48:41;99479.88;;;1.22;100.00
9717;BME280;4897;43.570;27.832;2023-01-29T09:51:14;99406.44;;;0.74;100.00
9717;BME280;4897;43.570;27.832;2023-01-29T09:53:52;99490.06;;;1.30;100.00
9717;BME280;4897;43.570;27.832;2023-01-29T09:56:20;99476.66;;;1.36;100.00
9717;BME280;4897;43.570;27.832;2023-01-29T09:58:55;99480.63;;;1.46;100.00
9717;BME280;4897;43.570;27.832;2023-01-29T10:01:31;99477.72;;;1.52;100.00
9717;BME280;4897;43.570;27.832;2023-01-29T10:04:12;99477.44;;;1.58;100.00
9717;BME280;4897;43.570;27.832;2023-01-29T10:06:56;99471.50;;;1.53;100.00
9717;BME280;4897;43.570;27.832;2023-01-29T10:09:44;99477.19;;;1.44;100.00
9717;BME280;4897;43.570;27.832;2023-01-29T10:15:14;99462.28;;;1.43;100.00
9717;BME280;4897;43.570;27.832;2023-01-29T10:20:42;99467.56;;;1.43;100.00
9717;BME280;4897;43.570;27.832;2023-01-29T10:23:21;99449.66;;;1.51;100.00
9717;BME280;4897;43.570;27.832;2023-01-29T10:25:51;99464.94;;;2.02;100.00
9717;BME280;4897;43.570;27.832;2023-01-29T10:28:21;99446.75;;;2.14;100.00
9717;BME280;4897;43.570;27.832;2023-01-29T10:30:55;99457.44;;;2.11;100.00
9717;BME280;4897;43.570;27.832;2023-01-29T10:33:29;99460.16;;;2.10;100.00
9717;BME280;4897;43.570;27.832;2023-01-29T10:36:01;99459.75;;;2.19;100.00
9717;BME280;4897;43.570;27.832;2023-01-29T10:38:35;99454.09;;;1.89;100.00
9717;BME280;4897;43.570;27.832;2023-01-29T10:41:26;99459.53;;;1.66;100.00
9717;BME280;4897;43.570;27.832;2023-01-29T10:44:03;99471.75;;;1.67;100.00
9717;BME280;4897;43.570;27.832;2023-01-29T10:46:45;99446.94;;;1.52;100.00
9717;BME280;4897;43.570;27.832;2023-01-29T10:49:30;99445.41;;;1.67;100.00
9717;BME280;4897;43.570;27.832;2023-01-29T10:52:13;99458.97;;;2.17;100.00
9717;BME280;4897;43.570;27.832;2023-01-29T10:54:59;99432.66;;;2.70;100.00
9717;BME280;4897;43.570;27.832;2023-01-29T10:57:50;99432.03;;;2.65;100.00
9717;BME280;4897;43.570;27.832;2023-01-29T11:00:21;99426.06;;;2.42;100.00
9717;BME280;4897;43.570;27.832;2023-01-29T11:02:50;99356.66;;;1.86;100.00
9717;BME280;4897;43.570;27.832;2023-01-29T11:05:28;99436.56;;;2.44;100.00
9717;BME280;4897;43.570;27.832;2023-01-29T11:08:04;99444.03;;;1.97;100.00
9717;BME280;4897;43.570;27.832;2023-01-29T11:10:37;99433.78;;;1.91;100.00
9717;BME280;4897;43.570;27.832;2023-01-29T11:13:11;99241.66;;;0.91;100.00
9717;BME280;4897;43.570;27.832;2023-01-29T11:15:40;99432.72;;;1.95;100.00
9717;BME280;4897;43.570;27.832;2023-01-29T11:18:08;99445.16;;;1.73;100.00
9717;BME280;4897;43.570;27.832;2023-01-29T11:20:38;99420.50;;;1.74;100.00
9717;BME280;4897;43.570;27.832;2023-01-29T11:23:23;99407.03;;;1.41;100.00
9717;BME280;4897;43.570;27.832;2023-01-29T11:25:52;99431.59;;;1.62;100.00
9717;BME280;4897;43.570;27.832;2023-01-29T11:31:21;99419.38;;;1.21;100.00
9717;BME280;4897;43.570;27.832;2023-01-29T11:33:51;99429.31;;;1.34;100.00
9717;BME280;4897;43.570;27.832;2023-01-29T11:36:21;99437.41;;;1.50;100.00
9717;BME280;4897;43.570;27.832;2023-01-29T11:39:10;99427.50;;;1.55;100.00
9717;BME280;4897;43.570;27.832;2023-01-29T11:41:42;99385.22;;;1.38;100.00
9717;BME280;4897;43.570;27.832;2023-01-29T11:44:21;99424.41;;;1.84;100.00
9717;BME280;4897;43.570;27.832;2023-01-29T11:46:53;99424.69;;;1.78;100.00
9717;BME280;4897;43.570;27.832;2023-01-29T11:49:28;99408.97;;;1.56;100.00
9717;BME280;4897;43.570;27.832;2023-01-29T11:51:58;99419.03;;;1.67;100.00
9717;BME280;4897;43.570;27.832;2023-01-29T11:54:28;99419.03;;;1.87;100.00
9717;BME280;4897;43.570;27.832;2023-01-29T11:56:57;99426.44;;;1.98;100.00
9717;BME280;4897;43.570;27.832;2023-01-29T11:59:30;99415.81;;;2.18;100.00
9717;BME280;4897;43.570;27.832;2023-01-29T12:02:16;99416.09;;;2.12;100.00
9717;BME280;4897;43.570;27.832;2023-01-29T12:04:44;99420.88;;;2.41;100.00
9717;BME280;4897;43.570;27.832;2023-01-29T12:07:13;99425.63;;;2.52;100.00
9717;BME280;4897;43.570;27.832;2023-01-29T12:09:48;99423.28;;;2.46;100.00
9717;BME280;4897;43.570;27.832;2023-01-29T12:12:26;99417.34;;;2.40;100.00
9717;BME280;4897;43.570;27.832;2023-01-29T12:17:54;99411.75;;;2.29;100.00
9717;BME280;4897;43.570;27.832;2023-01-29T12:20:27;99413.84;;;2.04;100.00
9717;BME280;4897;43.570;27.832;2023-01-29T12:23:02;99427.34;;;2.15;100.00
9717;BME280;4897;43.570;27.832;2023-01-29T12:25:53;99425.38;;;2.20;100.00
9717;BME280;4897;43.570;27.832;2023-01-29T12:28:30;99401.22;;;2.29;100.00
9717;BME280;4897;43.570;27.832;2023-01-29T12:31:07;99407.16;;;2.52;100.00
9717;BME280;4897;43.570;27.832;2023-01-29T12:33:42;99417.28;;;2.42;100.00
9717;BME280;4897;43.570;27.832;2023-01-29T12:36:17;99415.38;;;2.27;100.00
9717;BME280;4897;43.570;27.832;2023-01-29T12:38:46;99389.84;;;2.27;100.00
9717;BME280;4897;43.570;27.832;2023-01-29T12:41:24;99408.72;;;2.56;100.00
9717;BME280;4897;43.570;27.832;2023-01-29T12:43:56;99399.94;;;2.55;100.00
9717;BME280;4897;43.570;27.832;2023-01-29T12:46:27;99416.94;;;2.50;100.00
9717;BME280;4897;43.570;27.832;2023-01-29T12:49:00;99413.47;;;2.12;100.00
9717;BME280;4897;43.570;27.832;2023-01-29T12:51:32;99354.38;;;1.97;100.00
9717;BME280;4897;43.570;27.832;2023-01-29T12:54:03;99407.25;;;2.31;100.00
9717;BME280;4897;43.570;27.832;2023-01-29T12:56:35;99415.97;;;2.33;100.00
9717;BME280;4897;43.570;27.832;2023-01-29T12:59:12;99409.03;;;2.31;100.00
9717;BME280;4897;43.570;27.832;2023-01-29T13:01:45;99404.41;;;2.17;100.00
9717;BME280;4897;43.570;27.832;2023-01-29T13:04:20;99425.56;;;2.34;100.00
9717;BME280;4897;43.570;27.832;2023-01-29T13:06:54;99441.41;;;1.97;100.00
9717;BME280;4897;43.570;27.832;2023-01-29T13:09:26;99411.22;;;1.84;100.00
9717;BME280;4897;43.570;27.832;2023-01-29T13:11:58;99427.94;;;2.03;100.00
9717;BME280;4897;43.570;27.832;2023-01-29T13:14:31;99428.31;;;2.14;100.00
9717;BME280;4897;43.570;27.832;2023-01-29T13:17:07;99413.31;;;1.96;100.00
9717;BME280;4897;43.570;27.832;2023-01-29T13:19:40;99430.50;;;2.05;100.00
9717;BME280;4897;43.570;27.832;2023-01-29T13:22:16;99438.91;;;2.13;100.00
9717;BME280;4897;43.570;27.832;2023-01-29T13:24:45;99443.84;;;2.02;100.00
9717;BME280;4897;43.570;27.832;2023-01-29T13:27:21;99438.59;;;1.82;100.00
9717;BME280;4897;43.570;27.832;2023-01-29T13:29:49;99431.31;;;1.68;100.00
9717;BME280;4897;43.570;27.832;2023-01-29T13:32:21;99451.97;;;1.58;100.00
9717;BME280;4897;43.570;27.832;2023-01-29T13:34:52;99404.22;;;1.46;100.00
9717;BME280;4897;43.570;27.832;2023-01-29T13:37:26;99427.31;;;1.59;100.00
9717;BME280;4897;43.570;27.832;2023-01-29T13:39:54;99423.97;;;1.56;100.00